createdAt,value
2022-08-29T00:00:18.961Z,59.62
2022-08-29T00:02:49.342Z,59.71
2022-08-29T00:05:18.001Z,59.85
2022-08-29T00:07:46.453Z,59.95
2022-08-29T00:10:19.748Z,60.02
2022-08-29T00:12:48.414Z,60.08
2022-08-29T00:15:17.492Z,60.28
2022-08-29T00:17:45.951Z,60.46
2022-08-29T00:20:19.242Z,60.63
2022-08-29T00:22:48.158Z,60.78
2022-08-29T00:25:18.148Z,60.87
2022-08-29T00:27:49.629Z,61.11
2022-08-29T00:30:19.101Z,61.34
2022-08-29T00:32:47.220Z,61.56
2022-08-29T00:35:18.569Z,61.75
2022-08-29T00:37:46.714Z,62.12
2022-08-29T00:40:21.352Z,61.90
2022-08-29T00:42:49.598Z,61.93
2022-08-29T00:45:19.299Z,62.17
2022-08-29T00:47:53.247Z,62.54
2022-08-29T00:50:28.755Z,62.55
2022-08-29T00:53:00.211Z,62.54
2022-08-29T00:55:34.596Z,62.65
2022-08-29T00:58:14.124Z,62.56
2022-08-29T01:00:43.687Z,62.96
2022-08-29T01:03:13.781Z,62.99
2022-08-29T01:05:42.910Z,63.20
2022-08-29T01:08:11.223Z,63.20
2022-08-29T01:10:58.243Z,63.59
2022-08-29T01:13:32.439Z,63.76
2022-08-29T01:16:01.952Z,63.91
2022-08-29T01:18:32.251Z,64.04
2022-08-29T01:21:09.109Z,64.11
2022-08-29T01:23:43.842Z,63.98
2022-08-29T01:26:13.614Z,64.25
2022-08-29T01:28:45.442Z,64.64
2022-08-29T01:31:31.761Z,64.57
2022-08-29T01:34:08.500Z,64.77
2022-08-29T01:36:50.332Z,65.15
2022-08-29T01:39:19.513Z,65.32
2022-08-29T01:41:49.795Z,65.39
2022-08-29T01:44:22.653Z,65.42
2022-08-29T01:46:56.808Z,65.58
2022-08-29T01:49:28.019Z,65.58
2022-08-29T01:51:56.185Z,65.92
2022-08-29T01:54:24.481Z,66.27
2022-08-29T01:56:55.637Z,66.77
2022-08-29T01:59:27.258Z,66.91
2022-08-29T02:02:00.854Z,67.11
2022-08-29T02:04:29.349Z,67.41
2022-08-29T02:06:58.794Z,67.68
2022-08-29T02:09:28.585Z,68.01
2022-08-29T02:11:59.407Z,68.35
2022-08-29T02:14:27.513Z,68.38
2022-08-29T02:16:55.967Z,68.60
2022-08-29T02:19:24.377Z,69.33
2022-08-29T02:21:52.844Z,69.26
2022-08-29T02:24:25.758Z,69.32
2022-08-29T02:26:57.711Z,69.25
2022-08-29T02:29:37.359Z,69.78
2022-08-29T02:32:07.895Z,69.62
2022-08-29T02:34:36.468Z,69.84
2022-08-29T02:37:04.917Z,70.03
2022-08-29T02:39:34.373Z,69.82
2022-08-29T02:42:04.247Z,70.17
2022-08-29T02:44:32.553Z,70.36
2022-08-29T02:47:00.748Z,70.50
2022-08-29T02:49:29.003Z,71.00
2022-08-29T02:51:58.509Z,71.25
2022-08-29T02:54:26.682Z,71.46
2022-08-29T02:56:54.834Z,72.02
2022-08-29T02:59:27.850Z,72.50
2022-08-29T03:01:56.002Z,72.86
2022-08-29T03:04:25.525Z,73.26
2022-08-29T03:06:53.640Z,73.72
2022-08-29T03:09:21.865Z,74.18
2022-08-29T03:11:52.536Z,74.24
2022-08-29T03:14:20.749Z,74.96
2022-08-29T03:16:50.251Z,75.09
2022-08-29T03:19:18.530Z,75.67
2022-08-29T03:21:47.866Z,75.33
2022-08-29T03:24:16.517Z,75.84
2022-08-29T03:26:56.785Z,75.92
2022-08-29T03:29:27.544Z,76.45
2022-08-29T03:31:58.483Z,76.72
2022-08-29T03:34:27.406Z,76.84
2022-08-29T03:36:55.817Z,77.27
2022-08-29T03:39:23.963Z,77.21
2022-08-29T03:41:52.166Z,77.46
2022-08-29T03:44:20.545Z,77.85
2022-08-29T03:46:48.743Z,77.72
2022-08-29T03:49:18.293Z,77.65
2022-08-29T03:51:46.382Z,77.80
2022-08-29T03:54:14.484Z,77.63
2022-08-29T03:56:42.713Z,77.85
2022-08-29T03:59:11.452Z,77.99
2022-08-29T04:01:39.790Z,77.67
2022-08-29T04:04:08.058Z,77.73
2022-08-29T04:06:37.462Z,77.72
2022-08-29T04:09:05.657Z,78.00
2022-08-29T04:11:33.743Z,77.91
2022-08-29T04:14:02.284Z,78.00
2022-08-29T04:16:31.439Z,78.11
2022-08-29T04:19:00.115Z,78.25
2022-08-29T04:21:28.517Z,78.10
2022-08-29T04:23:58.266Z,78.48
2022-08-29T04:26:36.342Z,78.64
2022-08-29T04:29:06.246Z,78.58
2022-08-29T04:31:34.543Z,78.53
2022-08-29T04:34:02.755Z,78.90
2022-08-29T04:36:31.159Z,78.66
2022-08-29T04:39:00.654Z,78.97
2022-08-29T04:41:28.937Z,79.24
2022-08-29T04:43:57.065Z,79.18
2022-08-29T04:46:25.426Z,79.43
2022-08-29T04:48:54.428Z,79.50
2022-08-29T04:51:23.466Z,79.57
2022-08-29T04:53:53.219Z,79.66
2022-08-29T04:56:23.294Z,79.66
2022-08-29T04:58:52.087Z,79.72
2022-08-29T05:01:24.162Z,79.55
2022-08-29T05:03:53.228Z,79.54
2022-08-29T05:06:23.329Z,79.68
2022-08-29T05:08:55.009Z,79.56
2022-08-29T05:11:31.434Z,79.51
2022-08-29T05:14:01.222Z,79.74
2022-08-29T05:16:31.011Z,79.79
2022-08-29T05:19:00.595Z,79.51
2022-08-29T05:21:35.847Z,79.51
2022-08-29T05:24:07.877Z,79.39
2022-08-29T05:26:40.198Z,79.27
2022-08-29T05:29:10.836Z,79.27
2022-08-29T05:31:41.129Z,79.29
2022-08-29T05:34:32.138Z,79.31
2022-08-29T05:36:59.247Z,79.37
2022-08-29T05:39:27.566Z,79.04
2022-08-29T05:41:58.424Z,79.15
2022-08-29T05:44:34.219Z,78.80
2022-08-29T05:47:03.890Z,78.85
2022-08-29T05:49:32.496Z,79.20
2022-08-29T05:52:01.406Z,78.96
2022-08-29T05:54:29.898Z,79.02
2022-08-29T05:56:59.820Z,78.94
2022-08-29T05:59:27.973Z,78.69
2022-08-29T06:01:56.089Z,78.58
2022-08-29T06:04:24.353Z,78.38
2022-08-29T06:06:52.440Z,78.30
2022-08-29T06:09:20.633Z,78.25
2022-08-29T06:11:51.099Z,77.94
2022-08-29T06:14:20.824Z,77.99
2022-08-29T06:16:49.003Z,77.93
2022-08-29T06:19:17.369Z,77.72
2022-08-29T06:21:45.476Z,77.64
2022-08-29T06:24:13.590Z,77.41
2022-08-29T06:26:41.721Z,77.34
2022-08-29T06:29:11.272Z,77.37
2022-08-29T06:31:40.804Z,77.14
2022-08-29T06:34:10.875Z,76.99
2022-08-29T06:36:39.871Z,76.72
2022-08-29T06:39:11.130Z,76.79
2022-08-29T06:41:43.364Z,76.35
2022-08-29T06:44:11.693Z,76.06
2022-08-29T06:46:43.709Z,75.93
2022-08-29T06:49:15.286Z,75.42
2022-08-29T06:51:49.010Z,75.49
2022-08-29T06:54:18.264Z,74.88
2022-08-29T06:56:46.612Z,74.65
2022-08-29T06:59:15.212Z,74.46
2022-08-29T07:01:47.044Z,74.27
2022-08-29T07:04:15.771Z,74.04
2022-08-29T07:06:49.962Z,73.71
2022-08-29T07:09:18.582Z,73.47
2022-08-29T07:11:46.661Z,73.54
2022-08-29T07:14:15.529Z,73.33
2022-08-29T07:16:44.948Z,72.58
2022-08-29T07:19:13.180Z,72.36
2022-08-29T07:21:41.350Z,71.84
2022-08-29T07:24:09.950Z,71.70
2022-08-29T07:26:42.508Z,72.03
2022-08-29T07:29:15.907Z,71.76
2022-08-29T07:31:45.982Z,71.25
2022-08-29T07:34:14.512Z,71.20
2022-08-29T07:36:43.037Z,71.09
2022-08-29T07:39:14.754Z,70.92
2022-08-29T07:41:44.553Z,70.22
2022-08-29T07:44:14.286Z,70.06
2022-08-29T07:46:43.514Z,69.97
2022-08-29T07:49:13.417Z,69.93
2022-08-29T07:51:44.238Z,69.82
2022-08-29T07:54:16.506Z,69.42
2022-08-29T07:56:44.934Z,69.48
2022-08-29T07:59:13.309Z,69.11
2022-08-29T08:01:41.524Z,69.02
2022-08-29T08:04:11.062Z,68.31
2022-08-29T08:06:42.714Z,67.74
2022-08-29T08:09:12.019Z,67.13
2022-08-29T08:11:41.085Z,66.83
2022-08-29T08:14:09.922Z,66.00
2022-08-29T08:16:38.877Z,65.83
2022-08-29T08:19:13.009Z,65.39
2022-08-29T08:21:46.974Z,64.70
2022-08-29T08:24:19.794Z,64.25
2022-08-29T08:26:49.562Z,63.23
2022-08-29T08:29:18.966Z,62.98
2022-08-29T08:31:49.467Z,62.08
2022-08-29T08:34:18.009Z,61.88
2022-08-29T08:36:47.786Z,61.39
2022-08-29T08:39:16.636Z,60.66
2022-08-29T08:41:54.539Z,59.95
2022-08-29T08:45:01.679Z,59.94
2022-08-29T08:47:34.458Z,58.60
2022-08-29T08:50:11.208Z,58.02
2022-08-29T08:52:47.317Z,57.71
2022-08-29T08:55:35.498Z,57.70
2022-08-29T08:58:17.060Z,57.51
2022-08-29T09:00:48.844Z,56.75
2022-08-29T09:03:57.343Z,57.27
2022-08-29T09:06:43.848Z,56.64
2022-08-29T09:09:24.702Z,56.30
2022-08-29T09:12:03.401Z,55.98
2022-08-29T09:14:49.490Z,56.60
2022-08-29T09:17:24.989Z,55.55
2022-08-29T09:19:53.529Z,55.01
2022-08-29T09:22:32.861Z,55.36
2022-08-29T09:25:06.842Z,56.09
2022-08-29T09:27:37.485Z,55.80
2022-08-29T09:30:11.994Z,56.62
2022-08-29T09:33:00.807Z,57.21
2022-08-29T09:35:37.031Z,57.69
2022-08-29T09:38:07.649Z,57.30
2022-08-29T09:40:55.739Z,57.57
2022-08-29T09:43:28.562Z,58.14
2022-08-29T09:46:17.553Z,57.79
2022-08-29T09:48:50.336Z,57.11
2022-08-29T09:51:28.355Z,57.13
2022-08-29T09:54:15.689Z,56.25
2022-08-29T09:56:54.360Z,56.51
2022-08-29T09:59:30.523Z,56.07
2022-08-29T10:02:31.191Z,55.75
2022-08-29T10:05:03.544Z,54.72
2022-08-29T10:07:37.458Z,55.44
2022-08-29T10:10:17.454Z,54.54
2022-08-29T10:12:56.294Z,54.28
2022-08-29T10:15:49.454Z,54.77
2022-08-29T10:18:28.578Z,53.70
2022-08-29T10:21:10.275Z,53.05
2022-08-29T10:23:53.044Z,52.52
2022-08-29T10:26:33.270Z,52.35
2022-08-29T10:29:15.172Z,52.65
2022-08-29T10:31:51.970Z,52.88
2022-08-29T10:34:42.381Z,52.69
2022-08-29T10:37:23.216Z,52.40
2022-08-29T10:39:59.367Z,52.67
2022-08-29T10:42:28.118Z,52.30
2022-08-29T10:45:16.828Z,53.10
2022-08-29T10:47:54.283Z,52.55
2022-08-29T10:50:44.058Z,52.39
2022-08-29T10:53:18.518Z,52.76
2022-08-29T10:55:54.879Z,53.08
2022-08-29T10:58:56.937Z,52.37
2022-08-29T11:01:32.347Z,52.57
2022-08-29T11:04:17.554Z,52.55
2022-08-29T11:06:53.297Z,52.50
2022-08-29T11:09:27.989Z,53.12
2022-08-29T11:12:10.042Z,53.00
2022-08-29T11:14:48.984Z,53.88
2022-08-29T11:17:20.462Z,53.67
2022-08-29T11:19:59.460Z,53.60
2022-08-29T11:22:34.726Z,53.67
2022-08-29T11:25:10.987Z,53.69
2022-08-29T11:27:54.692Z,53.37
2022-08-29T11:30:30.788Z,52.95
2022-08-29T11:33:15.810Z,53.40
2022-08-29T11:36:07.256Z,52.61
2022-08-29T11:39:14.430Z,52.17
2022-08-29T11:41:44.997Z,52.23
2022-08-29T11:44:24.092Z,51.79
2022-08-29T11:46:56.623Z,51.54
2022-08-29T11:49:38.825Z,50.86
2022-08-29T11:52:24.898Z,50.40
2022-08-29T11:55:28.302Z,51.13
2022-08-29T11:58:40.609Z,51.12
2022-08-29T12:01:12.120Z,51.10
2022-08-29T12:03:51.125Z,50.77
2022-08-29T12:06:43.281Z,51.12
2022-08-29T12:09:43.479Z,50.67
2022-08-29T12:12:19.680Z,50.69
2022-08-29T12:14:50.379Z,50.16
2022-08-29T12:18:01.349Z,50.07
2022-08-29T12:20:41.732Z,49.72
2022-08-29T12:23:30.298Z,49.88
2022-08-29T12:26:22.778Z,49.44
2022-08-29T12:28:59.674Z,48.54
2022-08-29T12:32:22.725Z,48.56
2022-08-29T12:35:28.403Z,48.75
2022-08-29T12:38:11.605Z,47.98
2022-08-29T12:40:58.562Z,47.54
2022-08-29T12:43:36.386Z,47.52
2022-08-29T12:46:14.053Z,47.10
2022-08-29T12:48:57.370Z,46.73
2022-08-29T12:51:35.229Z,46.50
2022-08-29T12:54:03.591Z,45.86
2022-08-29T12:56:34.593Z,45.28
2022-08-29T12:59:05.826Z,45.71
2022-08-29T13:01:38.432Z,45.13
2022-08-29T13:04:18.936Z,44.74
2022-08-29T13:06:58.678Z,44.55
2022-08-29T13:09:33.139Z,44.54
2022-08-29T13:12:16.686Z,44.09
2022-08-29T13:14:51.521Z,43.90
2022-08-29T13:17:22.862Z,42.74
2022-08-29T13:20:45.915Z,39.93
2022-08-29T13:23:26.279Z,38.72
2022-08-29T13:26:01.987Z,36.89
2022-08-29T13:28:43.015Z,37.12
2022-08-29T13:31:34.491Z,37.20
2022-08-29T13:34:22.308Z,37.95
2022-08-29T13:37:06.305Z,38.95
2022-08-29T13:39:48.194Z,40.41
2022-08-29T13:42:33.547Z,41.27
2022-08-29T13:45:19.411Z,42.41
2022-08-29T13:47:57.661Z,42.35
2022-08-29T13:50:27.925Z,41.97
2022-08-29T13:52:58.186Z,42.11
2022-08-29T13:55:26.596Z,42.98
2022-08-29T13:57:56.444Z,42.98
2022-08-29T14:00:34.821Z,43.70
2022-08-29T14:03:05.418Z,44.46
2022-08-29T14:05:35.118Z,45.07
2022-08-29T14:08:04.302Z,45.23
2022-08-29T14:10:32.419Z,46.06
2022-08-29T14:13:00.578Z,46.71
2022-08-29T14:15:30.222Z,46.80
2022-08-29T14:17:58.581Z,47.55
2022-08-29T14:20:27.347Z,47.65
2022-08-29T14:22:55.543Z,47.96
2022-08-29T14:25:23.754Z,48.31
2022-08-29T14:27:53.593Z,48.09
2022-08-29T14:30:25.743Z,48.04
2022-08-29T14:32:55.261Z,48.25
2022-08-29T14:35:26.046Z,48.90
2022-08-29T14:37:56.022Z,48.74
2022-08-29T14:40:25.828Z,48.87
2022-08-29T14:42:59.739Z,48.47
2022-08-29T14:45:30.273Z,48.27
2022-08-29T14:47:59.918Z,48.34
2022-08-29T14:50:28.354Z,48.44
2022-08-29T14:52:56.642Z,48.29
2022-08-29T14:55:25.712Z,48.80
2022-08-29T14:57:54.107Z,47.31
2022-08-29T15:00:28.042Z,46.26
2022-08-29T15:02:57.158Z,45.29
2022-08-29T15:05:27.149Z,45.71
2022-08-29T15:07:55.299Z,45.56
2022-08-29T15:10:25.503Z,45.08
2022-08-29T15:12:54.092Z,44.83
2022-08-29T15:15:28.912Z,45.44
2022-08-29T15:17:57.409Z,46.46
2022-08-29T15:20:36.314Z,46.51
2022-08-29T15:23:05.622Z,46.23
2022-08-29T15:25:34.109Z,46.48
2022-08-29T15:28:02.624Z,45.47
2022-08-29T15:30:30.721Z,44.70
2022-08-29T15:32:58.978Z,44.55
2022-08-29T15:35:28.423Z,44.86
2022-08-29T15:37:57.361Z,45.14
2022-08-29T15:40:25.947Z,45.25
2022-08-29T15:42:54.417Z,45.00
2022-08-29T15:45:23.750Z,45.04
2022-08-29T15:47:53.935Z,44.37
2022-08-29T15:50:23.854Z,43.99
2022-08-29T15:52:53.625Z,43.95
2022-08-29T15:55:22.552Z,43.94
2022-08-29T15:57:52.890Z,43.84
2022-08-29T16:00:29.800Z,43.72
2022-08-29T16:03:01.322Z,44.07
2022-08-29T16:05:30.464Z,44.62
2022-08-29T16:07:59.969Z,45.27
2022-08-29T16:10:28.275Z,45.50
2022-08-29T16:12:56.443Z,46.22
2022-08-29T16:15:24.920Z,46.58
2022-08-29T16:17:53.581Z,47.00
2022-08-29T16:20:22.048Z,47.03
2022-08-29T16:22:50.596Z,47.53
2022-08-29T16:25:21.338Z,48.11
2022-08-29T16:27:50.188Z,47.92
2022-08-29T16:30:19.994Z,47.92
2022-08-29T16:32:49.866Z,48.11
2022-08-29T16:35:20.415Z,47.90
2022-08-29T16:37:51.392Z,48.69
2022-08-29T16:40:33.431Z,48.27
2022-08-29T16:43:02.835Z,48.39
2022-08-29T16:45:35.302Z,49.13
2022-08-29T16:48:04.721Z,48.86
2022-08-29T16:50:38.935Z,48.99
2022-08-29T16:53:07.237Z,49.01
2022-08-29T16:55:36.721Z,49.40
2022-08-29T16:58:22.685Z,49.65
2022-08-29T17:00:51.640Z,49.95
2022-08-29T17:03:20.967Z,49.69
2022-08-29T17:05:50.280Z,49.35
2022-08-29T17:08:17.681Z,49.42
2022-08-29T17:10:46.768Z,48.41
2022-08-29T17:13:13.882Z,48.97
2022-08-29T17:15:41.044Z,49.83
2022-08-29T17:18:09.322Z,50.51
2022-08-29T17:20:37.995Z,49.80
2022-08-29T17:23:10.072Z,47.88
2022-08-29T17:25:39.231Z,46.17
2022-08-29T17:28:18.411Z,45.16
2022-08-29T17:30:49.106Z,45.75
2022-08-29T17:33:17.679Z,46.85
2022-08-29T17:35:46.358Z,48.36
2022-08-29T17:38:15.977Z,49.28
2022-08-29T17:40:44.621Z,50.14
2022-08-29T17:43:14.577Z,50.84
2022-08-29T17:45:42.940Z,49.85
2022-08-29T17:48:12.078Z,49.80
2022-08-29T17:50:41.762Z,49.57
2022-08-29T17:53:09.892Z,49.86
2022-08-29T17:55:38.179Z,50.95
2022-08-29T17:58:06.332Z,52.13
2022-08-29T18:00:36.369Z,53.01
2022-08-29T18:03:05.052Z,53.68
2022-08-29T18:05:33.301Z,54.52
2022-08-29T18:08:01.433Z,55.04
2022-08-29T18:10:30.244Z,55.64
2022-08-29T18:12:58.606Z,56.42
2022-08-29T18:15:26.839Z,57.15
2022-08-29T18:17:57.059Z,57.99
2022-08-29T18:20:25.233Z,58.85
2022-08-29T18:22:53.361Z,59.26
2022-08-29T18:25:23.794Z,59.66
2022-08-29T18:27:52.208Z,60.21
2022-08-29T18:30:21.471Z,60.80
2022-08-29T18:32:50.156Z,61.53
2022-08-29T18:35:19.807Z,62.12
2022-08-29T18:37:47.890Z,62.33
2022-08-29T18:40:16.195Z,62.43
2022-08-29T18:42:44.801Z,63.09
2022-08-29T18:45:13.395Z,63.59
2022-08-29T18:47:41.496Z,63.79
2022-08-29T18:50:28.556Z,64.31
2022-08-29T18:52:58.129Z,64.56
2022-08-29T18:55:26.768Z,64.33
2022-08-29T18:57:55.433Z,64.55
2022-08-29T19:00:25.050Z,65.07
2022-08-29T19:02:53.990Z,64.86
2022-08-29T19:05:22.762Z,65.00
2022-08-29T19:07:51.252Z,65.34
2022-08-29T19:10:21.746Z,65.16
2022-08-29T19:12:50.693Z,65.85
2022-08-29T19:15:21.267Z,66.03
2022-08-29T19:17:49.824Z,66.19
2022-08-29T19:20:51.960Z,66.48
2022-08-29T19:23:21.323Z,66.73
2022-08-29T19:25:51.570Z,67.37
2022-08-29T19:28:20.724Z,67.07
2022-08-29T19:30:52.132Z,67.83
2022-08-29T19:33:22.842Z,68.11
2022-08-29T19:35:53.610Z,68.37
2022-08-29T19:38:23.482Z,68.82
2022-08-29T19:40:56.378Z,68.83
2022-08-29T19:43:25.718Z,69.34
2022-08-29T19:45:54.774Z,69.38
2022-08-29T19:48:23.550Z,70.11
2022-08-29T19:50:53.920Z,70.39
2022-08-29T19:53:26.920Z,70.56
2022-08-29T19:55:57.272Z,70.76
2022-08-29T19:58:32.121Z,70.87
2022-08-29T20:01:03.474Z,71.32
2022-08-29T20:03:32.857Z,71.13
2022-08-29T20:06:06.077Z,71.30
2022-08-29T20:08:36.740Z,71.28
2022-08-29T20:11:06.970Z,71.55
2022-08-29T20:13:36.420Z,71.73
2022-08-29T20:16:12.192Z,71.57
2022-08-29T20:18:41.561Z,71.81
2022-08-29T20:21:09.820Z,71.63
2022-08-29T20:23:41.459Z,72.02
2022-08-29T20:26:19.693Z,71.64
2022-08-29T20:28:49.077Z,71.91
2022-08-29T20:31:17.364Z,72.11
2022-08-29T20:33:47.390Z,72.09
2022-08-29T20:36:34.050Z,72.36
2022-08-29T20:39:10.326Z,72.37
2022-08-29T20:41:40.002Z,72.45
2022-08-29T20:44:10.111Z,72.48
2022-08-29T20:46:42.293Z,72.67
2022-08-29T20:49:11.297Z,72.42
2022-08-29T20:51:42.281Z,72.54
2022-08-29T20:54:10.573Z,72.40
2022-08-29T20:56:40.093Z,72.84
2022-08-29T20:59:08.590Z,72.78
2022-08-29T21:01:37.025Z,73.04
2022-08-29T21:04:25.372Z,72.66
2022-08-29T21:06:55.905Z,72.93
2022-08-29T21:09:24.495Z,72.99
2022-08-29T21:11:54.711Z,72.89
2022-08-29T21:14:23.488Z,73.07
2022-08-29T21:16:53.386Z,73.01
2022-08-29T21:19:22.748Z,73.17
2022-08-29T21:21:51.376Z,73.02
2022-08-29T21:24:20.391Z,73.06
2022-08-29T21:26:49.345Z,73.21
2022-08-29T21:29:20.106Z,73.38
2022-08-29T21:31:48.745Z,73.58
2022-08-29T21:34:17.564Z,73.51
2022-08-29T21:36:46.085Z,73.61
2022-08-29T21:39:19.737Z,73.36
2022-08-29T21:41:56.443Z,73.48
2022-08-29T21:44:25.949Z,73.47
2022-08-29T21:46:54.172Z,73.47
2022-08-29T21:49:22.460Z,73.36
2022-08-29T21:51:51.473Z,73.55
2022-08-29T21:54:20.066Z,73.63
2022-08-29T21:56:49.297Z,73.68
2022-08-29T21:59:19.258Z,73.76
2022-08-29T22:01:54.585Z,73.73
2022-08-29T22:04:28.429Z,74.13
2022-08-29T22:06:59.305Z,74.05
2022-08-29T22:09:28.881Z,74.19
2022-08-29T22:11:57.396Z,74.18
2022-08-29T22:14:46.685Z,74.33
2022-08-29T22:17:16.017Z,74.33
2022-08-29T22:19:44.151Z,74.38
2022-08-29T22:22:12.445Z,74.59
2022-08-29T22:24:40.638Z,74.55
2022-08-29T22:27:08.891Z,74.51
2022-08-29T22:29:37.504Z,74.60
2022-08-29T22:32:06.375Z,74.98
2022-08-29T22:34:35.864Z,74.68
2022-08-29T22:37:04.377Z,74.82
2022-08-29T22:39:32.594Z,75.14
2022-08-29T22:42:01.067Z,75.20
2022-08-29T22:44:59.684Z,75.15
2022-08-29T22:47:21.397Z,74.96
2022-08-29T22:49:50.868Z,74.96
2022-08-29T22:52:19.390Z,74.79
2022-08-29T22:54:48.042Z,74.94
2022-08-29T22:57:19.182Z,75.29
2022-08-29T22:59:49.151Z,75.13
2022-08-29T23:02:20.475Z,75.56
2022-08-29T23:04:51.843Z,75.65
2022-08-29T23:07:20.861Z,75.70
2022-08-29T23:09:48.937Z,76.00
2022-08-29T23:12:17.284Z,75.87
2022-08-29T23:14:47.173Z,76.06
2022-08-29T23:17:16.843Z,76.21
2022-08-29T23:19:45.785Z,76.53
2022-08-29T23:22:15.645Z,76.44
2022-08-29T23:24:58.530Z,76.66
2022-08-29T23:27:27.876Z,76.84
2022-08-29T23:29:56.382Z,76.88
2022-08-29T23:32:24.525Z,76.99
2022-08-29T23:34:52.706Z,77.17
2022-08-29T23:37:22.197Z,77.83
2022-08-29T23:39:50.823Z,78.01
2022-08-29T23:42:19.223Z,78.08
2022-08-29T23:44:48.329Z,78.37
2022-08-29T23:47:16.916Z,78.69
2022-08-29T23:49:45.144Z,78.54
2022-08-29T23:52:13.420Z,79.02
2022-08-29T23:54:43.018Z,79.08
2022-08-29T23:57:11.233Z,79.41
2022-08-29T23:59:56.944Z,79.64
